Time;durP1;ratioP1;P1;durP2;ratioP2;P2;SDS_P1;SDS_P2;PMS_P1;PMS_P2;Temp;Humidity;BMP_temperature;BMP_pressure;BME280_temperature;BME280_humidity;BME280_pressure;Samples;Min_cycle;Max_cycle;Signal;HPM_P1;HPM_P2
2022/08/20 00:00:47;;;;;;;;;;;21.90;54.20;;;;;;484127;246;1417;-75
2022/08/20 00:02:49;;;;;;;;;;;21.90;54.10;;;;;;484286;246;1164;-75
2022/08/20 00:04:50;;;;;;;;;;;21.80;54.30;;;;;;484288;246;1293;-75
2022/08/20 00:06:51;;;;;;;;;;;21.80;54.20;;;;;;484264;246;1385;-75
2022/08/20 00:08:52;;;;;;;;;;;21.80;54.20;;;;;;484357;243;1335;-75
2022/08/20 00:10:54;;;;;;;;;;;22.00;53.80;;;;;;484407;246;1182;-75
2022/08/20 00:12:55;;;;;;;;;;;22.10;53.40;;;;;;484234;246;2184;-75
2022/08/20 00:14:56;;;;;;;;;;;22.10;53.20;;;;;;484244;246;1333;-75
2022/08/20 00:16:58;;;;;;;;;;;22.10;53.10;;;;;;484277;246;1549;-75
2022/08/20 00:18:59;;;;;;;;;;;22.20;52.90;;;;;;484441;246;1160;-74
2022/08/20 00:21:01;;;;;;;;;;;22.20;52.70;;;;;;484280;246;1141;-74
2022/08/20 00:23:02;;;;;;;;;;;22.30;52.80;;;;;;484402;246;1185;-75
2022/08/20 00:25:03;;;;;;;;;;;22.20;52.90;;;;;;484307;246;1148;-75
2022/08/20 00:27:05;;;;;;;;;;;22.30;52.80;;;;;;484384;246;1147;-75
2022/08/20 00:29:06;;;;;;;;;;;22.30;52.70;;;;;;484568;246;1061;-74
2022/08/20 00:31:08;;;;;;;;;;;22.40;52.60;;;;;;484303;246;1374;-74
2022/08/20 00:33:09;;;;;;;;;;;22.40;52.60;;;;;;484493;246;2155;-74
2022/08/20 00:35:10;;;;;;;;;;;22.40;52.50;;;;;;484391;246;1218;-74
2022/08/20 00:37:11;;;;;;;;;;;22.40;52.50;;;;;;484596;246;1059;-74
2022/08/20 00:39:13;;;;;;;;;;;22.40;52.40;;;;;;484291;246;1089;-75
2022/08/20 00:41:14;;;;;;;;;;;22.40;52.40;;;;;;484362;246;1168;-75
2022/08/20 00:43:15;;;;;;;;;;;22.40;52.50;;;;;;484272;246;1139;-75
2022/08/20 00:45:17;;;;;;;;;;;22.40;52.50;;;;;;484614;246;1272;-75
2022/08/20 00:47:19;;;;;;;;;;;22.50;52.40;;;;;;484528;245;1186;-75
2022/08/20 00:49:20;;;;;;;;;;;22.50;52.30;;;;;;484350;246;1525;-75
2022/08/20 00:51:21;;;;;;;;;;;22.50;52.30;;;;;;484243;246;1408;-74
2022/08/20 00:53:22;;;;;;;;;;;22.40;52.30;;;;;;484269;246;2248;-74
2022/08/20 00:55:23;;;;;;;;;;;22.30;52.70;;;;;;484320;246;1185;-74
2022/08/20 00:57:25;;;;;;;;;;;22.30;52.90;;;;;;484268;246;1122;-74
2022/08/20 00:59:26;;;;;;;;;;;22.20;52.90;;;;;;484532;246;1149;-74
2022/08/20 01:01:28;;;;;;;;;;;22.40;52.80;;;;;;484749;246;1179;-74
2022/08/20 01:03:29;;;;;;;;;;;22.40;52.70;;;;;;484274;246;1354;-74
2022/08/20 01:05:30;;;;;;;;;;;22.40;52.60;;;;;;484419;246;1231;-75
2022/08/20 01:07:33;;;;;;;;;;;22.40;52.60;;;;;;484269;246;1132;-75
2022/08/20 01:09:33;;;;;;;;;;;22.50;52.60;;;;;;484260;246;1915;-75
2022/08/20 01:11:34;;;;;;;;;;;22.50;52.50;;;;;;484537;246;1182;-75
2022/08/20 01:13:36;;;;;;;;;;;22.50;52.30;;;;;;484344;246;2180;-75
2022/08/20 01:15:38;;;;;;;;;;;22.60;52.20;;;;;;484339;246;1226;-75
2022/08/20 01:17:40;;;;;;;;;;;22.50;52.30;;;;;;484270;246;1141;-75
2022/08/20 01:19:40;;;;;;;;;;;22.50;52.40;;;;;;484217;246;1398;-75
2022/08/20 01:21:42;;;;;;;;;;;22.50;52.40;;;;;;484307;246;1164;-75
2022/08/20 01:23:43;;;;;;;;;;;22.50;52.30;;;;;;484246;246;1155;-75
2022/08/20 01:25:45;;;;;;;;;;;22.50;52.40;;;;;;484314;246;1295;-75
2022/08/20 01:27:46;;;;;;;;;;;22.60;52.30;;;;;;484361;246;1210;-75
2022/08/20 01:29:47;;;;;;;;;;;22.60;52.30;;;;;;484452;246;1150;-75
2022/08/20 01:31:48;;;;;;;;;;;22.50;52.30;;;;;;484285;246;1211;-75
2022/08/20 01:33:50;;;;;;;;;;;22.60;52.20;;;;;;484327;246;2187;-75
2022/08/20 01:35:51;;;;;;;;;;;22.50;52.20;;;;;;484491;246;1234;-75
2022/08/20 01:37:52;;;;;;;;;;;22.50;52.30;;;;;;484321;246;1326;-74
2022/08/20 01:39:54;;;;;;;;;;;22.50;52.40;;;;;;484343;246;1224;-74
2022/08/20 01:41:55;;;;;;;;;;;22.50;52.50;;;;;;484326;245;1214;-74
2022/08/20 01:43:56;;;;;;;;;;;22.40;52.50;;;;;;484335;242;1282;-74
2022/08/20 01:45:58;;;;;;;;;;;22.40;52.50;;;;;;484331;246;1176;-74
2022/08/20 01:47:59;;;;;;;;;;;22.50;52.50;;;;;;484680;246;1179;-74
2022/08/20 01:50:00;;;;;;;;;;;22.50;52.40;;;;;;484501;246;1217;-74
2022/08/20 01:52:02;;;;;;;;;;;22.50;52.40;;;;;;484680;246;1125;-74
2022/08/20 01:54:03;;;;;;;;;;;22.40;52.40;;;;;;484373;246;2116;-74
2022/08/20 01:56:05;;;;;;;;;;;22.40;52.60;;;;;;484337;246;1503;-74
2022/08/20 01:58:06;;;;;;;;;;;22.40;52.60;;;;;;484482;246;1135;-74
2022/08/20 02:00:08;;;;;;;;;;;22.50;52.60;;;;;;484313;246;1171;-74
2022/08/20 02:02:09;;;;;;;;;;;22.50;52.40;;;;;;484323;242;1190;-74
2022/08/20 02:04:10;;;;;;;;;;;22.40;52.50;;;;;;484358;246;1128;-74
2022/08/20 02:06:12;;;;;;;;;;;22.50;52.50;;;;;;484646;246;1151;-74
2022/08/20 02:08:13;;;;;;;;;;;22.50;52.50;;;;;;484512;246;1691;-74
2022/08/20 02:10:14;;;;;;;;;;;22.50;52.40;;;;;;484282;246;1220;-74
2022/08/20 02:12:16;;;;;;;;;;;22.60;52.30;;;;;;484336;246;1232;-74
2022/08/20 02:14:17;;;;;;;;;;;22.60;52.10;;;;;;484306;246;2196;-74
2022/08/20 02:16:19;;;;;;;;;;;22.50;52.10;;;;;;484373;246;1200;-74
2022/08/20 02:18:20;;;;;;;;;;;22.50;52.20;;;;;;484465;246;1148;-74
2022/08/20 02:20:21;;;;;;;;;;;22.40;52.10;;;;;;484315;246;1123;-75
2022/08/20 02:22:23;;;;;;;;;;;22.40;52.20;;;;;;484401;246;1284;-75
2022/08/20 02:24:24;;;;;;;;;;;22.40;52.30;;;;;;484293;246;1307;-75
2022/08/20 02:26:25;;;;;;;;;;;22.40;52.30;;;;;;484374;246;1226;-75
2022/08/20 02:28:27;;;;;;;;;;;22.30;52.40;;;;;;484293;246;1232;-75
2022/08/20 02:30:28;;;;;;;;;;;22.30;52.50;;;;;;484458;246;1123;-75
2022/08/20 02:32:29;;;;;;;;;;;22.30;52.40;;;;;;484289;246;1184;-75
2022/08/20 02:34:33;;;;;;;;;;;22.30;52.50;;;;;;484326;246;2168;-75
2022/08/20 02:36:32;;;;;;;;;;;22.30;52.50;;;;;;484163;246;1447;-75
2022/08/20 02:38:34;;;;;;;;;;;22.30;52.50;;;;;;484282;246;1271;-75
2022/08/20 02:40:36;;;;;;;;;;;22.30;52.70;;;;;;484303;246;1184;-75
2022/08/20 02:42:40;;;;;;;;;;;22.20;52.70;;;;;;484362;246;1478;-75
2022/08/20 02:44:39;;;;;;;;;;;22.30;52.80;;;;;;484067;246;2044;-75
2022/08/20 02:46:40;;;;;;;;;;;22.30;52.80;;;;;;484492;246;1122;-75
2022/08/20 02:48:41;;;;;;;;;;;22.30;52.60;;;;;;484368;246;1155;-75
2022/08/20 02:50:43;;;;;;;;;;;22.30;52.50;;;;;;484311;246;1180;-75
2022/08/20 02:52:44;;;;;;;;;;;22.40;52.60;;;;;;484630;246;2172;-75
2022/08/20 02:54:46;;;;;;;;;;;22.40;52.40;;;;;;484348;246;1024;-74
2022/08/20 02:56:47;;;;;;;;;;;22.20;52.70;;;;;;484298;246;1433;-75
2022/08/20 02:58:48;;;;;;;;;;;22.10;53.20;;;;;;484691;246;1108;-75
2022/08/20 03:00:50;;;;;;;;;;;22.10;53.30;;;;;;484313;246;1124;-75
2022/08/20 03:02:51;;;;;;;;;;;22.20;53.10;;;;;;484323;246;1265;-75
2022/08/20 03:04:52;;;;;;;;;;;22.20;53.00;;;;;;484348;246;1039;-75
2022/08/20 03:06:54;;;;;;;;;;;22.30;52.90;;;;;;484371;246;1165;-75
2022/08/20 03:08:55;;;;;;;;;;;22.30;52.90;;;;;;484286;246;1048;-75
2022/08/20 03:10:56;;;;;;;;;;;22.40;52.70;;;;;;484336;246;1120;-75
2022/08/20 03:12:58;;;;;;;;;;;22.50;52.50;;;;;;484342;246;2196;-75
2022/08/20 03:14:59;;;;;;;;;;;22.40;52.50;;;;;;484447;246;1077;-75
2022/08/20 03:17:01;;;;;;;;;;;22.40;52.60;;;;;;484464;246;1112;-75
2022/08/20 03:19:02;;;;;;;;;;;22.40;52.60;;;;;;484345;246;1185;-75
2022/08/20 03:21:03;;;;;;;;;;;22.40;52.60;;;;;;484323;246;1081;-75
2022/08/20 03:23:05;;;;;;;;;;;22.40;52.60;;;;;;484765;246;969;-74
2022/08/20 03:25:06;;;;;;;;;;;22.40;52.60;;;;;;484622;246;1000;-74
2022/08/20 03:27:08;;;;;;;;;;;22.40;52.80;;;;;;484523;246;1182;-75
2022/08/20 03:29:09;;;;;;;;;;;22.40;52.80;;;;;;484289;246;1171;-75
2022/08/20 03:31:10;;;;;;;;;;;22.40;52.80;;;;;;484332;246;1156;-75
2022/08/20 03:33:12;;;;;;;;;;;22.40;52.70;;;;;;484356;246;2168;-75
2022/08/20 03:35:13;;;;;;;;;;;22.40;52.60;;;;;;484391;246;1127;-75
2022/08/20 03:37:14;;;;;;;;;;;22.50;52.70;;;;;;484356;242;1166;-75
2022/08/20 03:39:16;;;;;;;;;;;22.40;52.70;;;;;;484299;246;1167;-74
2022/08/20 03:41:17;;;;;;;;;;;22.30;53.00;;;;;;484317;246;1280;-74
2022/08/20 03:43:19;;;;;;;;;;;22.20;53.40;;;;;;484362;246;1120;-75
2022/08/20 03:45:20;;;;;;;;;;;22.00;53.80;;;;;;484273;246;1243;-74
2022/08/20 03:47:22;;;;;;;;;;;21.80;54.20;;;;;;484275;246;1188;-74
2022/08/20 03:49:23;;;;;;;;;;;21.90;54.20;;;;;;484522;246;1508;-74
2022/08/20 03:51:24;;;;;;;;;;;21.90;54.10;;;;;;484288;246;1303;-74
2022/08/20 03:53:30;;;;;;;;;;;22.10;53.70;;;;;;484348;246;2180;-74
2022/08/20 03:55:27;;;;;;;;;;;22.30;53.30;;;;;;483962;246;1492;-74
2022/08/20 03:57:28;;;;;;;;;;;22.40;53.20;;;;;;484310;246;1234;-74
2022/08/20 03:59:31;;;;;;;;;;;22.40;53.00;;;;;;484291;246;1178;-74
2022/08/20 04:01:31;;;;;;;;;;;22.30;52.90;;;;;;484279;246;1456;-75
2022/08/20 04:03:33;;;;;;;;;;;22.30;53.20;;;;;;484402;246;1167;-74
2022/08/20 04:05:34;;;;;;;;;;;22.20;53.40;;;;;;484369;246;1165;-74
2022/08/20 04:07:36;;;;;;;;;;;22.20;53.30;;;;;;484344;246;1205;-74
2022/08/20 04:09:37;;;;;;;;;;;22.20;53.40;;;;;;484258;246;1501;-74
2022/08/20 04:11:39;;;;;;;;;;;22.20;53.40;;;;;;484283;246;1191;-74
2022/08/20 04:13:40;;;;;;;;;;;22.30;53.30;;;;;;484567;246;2168;-74
2022/08/20 04:15:41;;;;;;;;;;;22.30;53.20;;;;;;484315;246;1158;-74
2022/08/20 04:17:43;;;;;;;;;;;22.40;53.10;;;;;;484272;246;1178;-75
2022/08/20 04:19:44;;;;;;;;;;;22.40;53.00;;;;;;484449;246;1114;-75
2022/08/20 04:21:47;;;;;;;;;;;22.40;52.90;;;;;;484289;246;1220;-75
2022/08/20 04:23:47;;;;;;;;;;;22.50;52.70;;;;;;484166;246;1417;-75
2022/08/20 04:25:49;;;;;;;;;;;22.50;52.70;;;;;;484434;246;1169;-75
2022/08/20 04:27:50;;;;;;;;;;;22.50;52.70;;;;;;484415;246;1158;-75
2022/08/20 04:29:51;;;;;;;;;;;22.50;52.60;;;;;;484286;246;1163;-75
2022/08/20 04:31:53;;;;;;;;;;;22.50;52.60;;;;;;484396;246;1173;-75
2022/08/20 04:33:54;;;;;;;;;;;22.50;52.50;;;;;;484274;246;2160;-75
2022/08/20 04:35:58;;;;;;;;;;;22.60;52.50;;;;;;484256;246;1200;-75
2022/08/20 04:37:57;;;;;;;;;;;22.50;52.60;;;;;;484113;246;1424;-75
2022/08/20 04:42:17;;;;;;;;;;;22.20;53.40;;;;;;484333;246;1225;-74
2022/08/20 04:44:20;;;;;;;;;;;22.20;53.60;;;;;;484610;246;1142;-75
2022/08/20 04:46:20;;;;;;;;;;;22.30;53.30;;;;;;484385;246;1549;-75
2022/08/20 04:48:22;;;;;;;;;;;22.40;53.20;;;;;;484366;246;1119;-75
2022/08/20 04:50:24;;;;;;;;;;;22.40;52.90;;;;;;484358;246;1226;-75
2022/08/20 04:52:25;;;;;;;;;;;22.40;52.80;;;;;;484316;246;1228;-75
2022/08/20 04:54:26;;;;;;;;;;;22.50;52.70;;;;;;484289;246;2207;-75
2022/08/20 04:56:28;;;;;;;;;;;22.50;52.60;;;;;;484498;243;1213;-75
2022/08/20 04:58:29;;;;;;;;;;;22.50;52.60;;;;;;484333;246;1120;-75
2022/08/20 05:00:31;;;;;;;;;;;22.50;52.50;;;;;;484395;246;1313;-75
2022/08/20 05:02:34;;;;;;;;;;;22.50;52.50;;;;;;484251;246;1221;-75
2022/08/20 05:04:34;;;;;;;;;;;22.50;52.50;;;;;;484132;246;1395;-75
2022/08/20 05:06:35;;;;;;;;;;;22.50;52.50;;;;;;484269;246;1217;-75
2022/08/20 05:08:37;;;;;;;;;;;22.50;52.40;;;;;;484342;246;1247;-75
2022/08/20 05:10:38;;;;;;;;;;;22.60;52.50;;;;;;484312;246;1462;-75
2022/08/20 05:12:39;;;;;;;;;;;22.60;52.40;;;;;;484328;246;1182;-75
2022/08/20 05:14:40;;;;;;;;;;;22.60;52.40;;;;;;484361;246;2152;-75
2022/08/20 05:16:42;;;;;;;;;;;22.50;52.50;;;;;;484289;246;1196;-75
2022/08/20 05:18:44;;;;;;;;;;;22.50;52.60;;;;;;484301;246;1166;-75
2022/08/20 05:20:44;;;;;;;;;;;22.50;52.60;;;;;;484270;246;1393;-75
2022/08/20 05:22:46;;;;;;;;;;;22.50;52.60;;;;;;484459;246;1166;-75
2022/08/20 05:24:47;;;;;;;;;;;22.50;52.50;;;;;;484305;246;1105;-75
2022/08/20 05:26:48;;;;;;;;;;;22.60;52.50;;;;;;484456;246;1144;-75
2022/08/20 05:28:50;;;;;;;;;;;22.60;52.40;;;;;;484317;246;1170;-75
2022/08/20 05:30:51;;;;;;;;;;;22.60;52.30;;;;;;484375;246;1203;-75
2022/08/20 05:32:52;;;;;;;;;;;22.60;52.40;;;;;;484351;246;1247;-75
2022/08/20 05:34:54;;;;;;;;;;;22.50;52.30;;;;;;484358;246;2192;-75
2022/08/20 05:36:55;;;;;;;;;;;22.60;52.30;;;;;;484317;242;1258;-75
2022/08/20 05:38:56;;;;;;;;;;;22.50;52.20;;;;;;484349;246;1037;-75
2022/08/20 05:40:58;;;;;;;;;;;22.50;52.20;;;;;;484369;246;1158;-75
2022/08/20 05:42:59;;;;;;;;;;;22.40;52.30;;;;;;484847;246;1123;-75
2022/08/20 05:45:01;;;;;;;;;;;22.40;52.40;;;;;;484539;246;1226;-74
2022/08/20 05:47:03;;;;;;;;;;;22.40;52.40;;;;;;484292;246;1124;-74
2022/08/20 05:49:05;;;;;;;;;;;22.40;52.40;;;;;;484338;246;1198;-75
2022/08/20 05:51:05;;;;;;;;;;;22.40;52.40;;;;;;484405;246;2010;-75
2022/08/20 05:53:07;;;;;;;;;;;22.30;52.50;;;;;;484510;246;1155;-75
2022/08/20 05:55:08;;;;;;;;;;;22.30;52.50;;;;;;484303;246;2192;-75
2022/08/20 05:57:09;;;;;;;;;;;22.30;52.60;;;;;;484353;246;1267;-75
2022/08/20 05:59:12;;;;;;;;;;;22.40;52.50;;;;;;484301;246;1109;-75
2022/08/20 06:01:12;;;;;;;;;;;22.40;52.50;;;;;;484282;246;1471;-75
2022/08/20 06:05:33;;;;;;;;;;;22.40;52.60;;;;;;484608;246;1173;-74
2022/08/20 06:07:35;;;;;;;;;;;22.40;52.50;;;;;;484557;246;1206;-74
2022/08/20 06:09:37;;;;;;;;;;;22.40;52.40;;;;;;484276;246;1176;-74
2022/08/20 06:11:38;;;;;;;;;;;22.50;52.40;;;;;;484321;246;1149;-74
2022/08/20 06:13:39;;;;;;;;;;;22.50;52.30;;;;;;484302;246;1090;-74
2022/08/20 06:15:41;;;;;;;;;;;22.50;52.20;;;;;;484295;246;2199;-74
2022/08/20 06:17:42;;;;;;;;;;;22.50;52.20;;;;;;484432;246;1328;-74
2022/08/20 06:19:43;;;;;;;;;;;22.60;52.30;;;;;;484298;246;1201;-74
2022/08/20 06:21:45;;;;;;;;;;;22.60;52.20;;;;;;484617;242;1165;-75
2022/08/20 06:23:46;;;;;;;;;;;22.60;52.20;;;;;;484450;246;1135;-75
2022/08/20 06:25:48;;;;;;;;;;;22.60;52.10;;;;;;484321;246;1302;-75
2022/08/20 06:27:49;;;;;;;;;;;22.60;52.00;;;;;;484310;246;1227;-75
2022/08/20 06:29:51;;;;;;;;;;;22.70;52.10;;;;;;484361;245;1239;-75
2022/08/20 06:31:52;;;;;;;;;;;22.70;52.00;;;;;;484323;246;1137;-74
2022/08/20 06:33:53;;;;;;;;;;;22.70;52.10;;;;;;484579;246;1138;-74
2022/08/20 06:35:55;;;;;;;;;;;22.70;52.10;;;;;;484421;246;2117;-74
2022/08/20 06:37:59;;;;;;;;;;;22.70;52.10;;;;;;484270;246;1215;-74
2022/08/20 06:39:57;;;;;;;;;;;22.70;52.00;;;;;;484114;246;1938;-74
2022/08/20 06:41:59;;;;;;;;;;;22.70;52.10;;;;;;484306;246;1156;-74
2022/08/20 06:44:00;;;;;;;;;;;22.70;52.00;;;;;;484361;246;1168;-75
2022/08/20 06:46:01;;;;;;;;;;;22.80;52.10;;;;;;484412;246;1201;-75
2022/08/20 06:48:03;;;;;;;;;;;22.70;52.00;;;;;;484327;246;1187;-75
2022/08/20 06:50:04;;;;;;;;;;;22.70;52.10;;;;;;484329;246;1153;-75
2022/08/20 06:52:05;;;;;;;;;;;22.70;52.10;;;;;;484346;246;1183;-75
2022/08/20 06:54:07;;;;;;;;;;;22.70;52.10;;;;;;484633;246;1129;-75
2022/08/20 06:56:08;;;;;;;;;;;22.70;52.10;;;;;;484315;246;2184;-75
2022/08/20 06:58:09;;;;;;;;;;;22.80;52.10;;;;;;484470;246;1136;-75
2022/08/20 07:00:11;;;;;;;;;;;22.70;52.10;;;;;;484337;246;1200;-74
2022/08/20 07:02:12;;;;;;;;;;;22.70;52.00;;;;;;484302;246;1151;-74
2022/08/20 07:04:14;;;;;;;;;;;22.80;52.10;;;;;;484260;246;1138;-74
2022/08/20 07:06:15;;;;;;;;;;;22.80;52.10;;;;;;484261;246;1506;-74
2022/08/20 07:08:17;;;;;;;;;;;22.80;52.10;;;;;;484287;246;1291;-74
2022/08/20 07:10:18;;;;;;;;;;;22.70;52.00;;;;;;484303;246;1206;-74
2022/08/20 07:12:19;;;;;;;;;;;22.80;52.10;;;;;;484194;246;1181;-74
2022/08/20 07:14:21;;;;;;;;;;;22.70;52.00;;;;;;484378;246;2152;-74
2022/08/20 07:16:22;;;;;;;;;;;22.70;52.00;;;;;;484302;246;1282;-75
2022/08/20 07:18:23;;;;;;;;;;;22.60;52.20;;;;;;484307;246;1192;-75
2022/08/20 07:20:25;;;;;;;;;;;22.70;52.20;;;;;;484277;246;1180;-75
2022/08/20 07:22:26;;;;;;;;;;;22.70;52.20;;;;;;484424;246;1300;-75
2022/08/20 07:24:27;;;;;;;;;;;22.70;52.30;;;;;;484450;246;1221;-75
2022/08/20 07:26:29;;;;;;;;;;;22.70;52.30;;;;;;484362;246;1190;-75
2022/08/20 07:28:30;;;;;;;;;;;22.70;52.20;;;;;;484283;246;1155;-75
2022/08/20 07:32:51;;;;;;;;;;;22.70;52.10;;;;;;484351;246;1307;-74
2022/08/20 07:34:52;;;;;;;;;;;22.70;52.00;;;;;;484279;246;2157;-74
2022/08/20 07:36:53;;;;;;;;;;;22.80;52.10;;;;;;484327;246;1256;-75
2022/08/20 07:38:55;;;;;;;;;;;22.80;52.00;;;;;;484313;246;1199;-75
2022/08/20 07:40:56;;;;;;;;;;;22.70;51.80;;;;;;484315;246;1221;-75
2022/08/20 07:42:59;;;;;;;;;;;22.70;51.90;;;;;;484312;246;1205;-75
2022/08/20 07:44:59;;;;;;;;;;;22.70;51.80;;;;;;484292;246;1977;-75
2022/08/20 07:47:00;;;;;;;;;;;22.60;51.90;;;;;;484317;246;1145;-75
2022/08/20 07:49:04;;;;;;;;;;;22.50;51.90;;;;;;484276;246;1209;-75
2022/08/20 07:51:03;;;;;;;;;;;22.50;52.30;;;;;;484134;246;1435;-75
2022/08/20 07:53:04;;;;;;;;;;;22.40;52.50;;;;;;484503;246;1228;-75
2022/08/20 07:55:05;;;;;;;;;;;22.20;52.60;;;;;;484251;246;2196;-75
2022/08/20 07:57:08;;;;;;;;;;;22.10;53.00;;;;;;484362;246;1183;-75
2022/08/20 07:59:08;;;;;;;;;;;21.90;53.40;;;;;;484250;246;1441;-75
2022/08/20 08:01:10;;;;;;;;;;;21.90;53.70;;;;;;484289;246;1199;-74
2022/08/20 08:03:11;;;;;;;;;;;21.90;54.00;;;;;;484283;246;1244;-74
2022/08/20 08:05:12;;;;;;;;;;;21.90;53.70;;;;;;484500;246;1192;-75
2022/08/20 08:07:15;;;;;;;;;;;22.00;53.70;;;;;;484307;246;1152;-75
2022/08/20 08:09:15;;;;;;;;;;;22.00;53.70;;;;;;484316;246;1415;-74
2022/08/20 08:11:18;;;;;;;;;;;22.10;53.50;;;;;;484291;246;1311;-74
2022/08/20 08:13:18;;;;;;;;;;;22.20;53.10;;;;;;484223;246;1458;-74
2022/08/20 08:15:20;;;;;;;;;;;22.30;53.10;;;;;;484376;246;2200;-74
2022/08/20 08:17:20;;;;;;;;;;;22.30;53.00;;;;;;484324;246;1399;-75
2022/08/20 08:19:22;;;;;;;;;;;22.20;53.20;;;;;;484418;245;1318;-75
2022/08/20 08:21:23;;;;;;;;;;;22.10;53.50;;;;;;484538;246;1242;-75
2022/08/20 08:23:24;;;;;;;;;;;22.10;53.60;;;;;;484235;246;1215;-75
2022/08/20 08:25:26;;;;;;;;;;;22.20;53.50;;;;;;484324;246;1174;-75
2022/08/20 08:27:31;;;;;;;;;;;22.20;53.40;;;;;;484446;246;1128;-75
2022/08/20 08:29:28;;;;;;;;;;;22.20;53.40;;;;;;484232;246;1427;-75
2022/08/20 08:31:30;;;;;;;;;;;22.20;53.40;;;;;;484438;246;1208;-75
2022/08/20 08:33:32;;;;;;;;;;;22.20;53.50;;;;;;484336;246;1253;-75
2022/08/20 08:35:32;;;;;;;;;;;22.30;53.30;;;;;;484241;246;2149;-74
2022/08/20 08:37:34;;;;;;;;;;;22.30;53.10;;;;;;484439;246;1186;-75
2022/08/20 08:39:35;;;;;;;;;;;22.20;53.40;;;;;;484302;246;1208;-75
2022/08/20 08:41:36;;;;;;;;;;;22.20;53.50;;;;;;484506;246;1222;-75
2022/08/20 08:43:38;;;;;;;;;;;22.10;53.60;;;;;;484315;246;1294;-74
2022/08/20 08:45:41;;;;;;;;;;;22.20;53.60;;;;;;484407;246;1283;-74
2022/08/20 08:47:42;;;;;;;;;;;22.30;53.30;;;;;;484241;246;1566;-75
2022/08/20 08:49:42;;;;;;;;;;;22.40;53.00;;;;;;484268;246;1421;-75
2022/08/20 08:51:44;;;;;;;;;;;22.50;52.90;;;;;;484344;246;1263;-74
2022/08/20 08:53:45;;;;;;;;;;;22.50;52.80;;;;;;484259;246;1177;-75
2022/08/20 08:55:47;;;;;;;;;;;22.50;52.80;;;;;;484344;246;2140;-75
2022/08/20 08:57:48;;;;;;;;;;;22.60;52.80;;;;;;484336;246;1310;-75
2022/08/20 08:59:50;;;;;;;;;;;22.60;52.70;;;;;;484257;246;1216;-75
2022/08/20 09:01:51;;;;;;;;;;;22.60;52.50;;;;;;484310;246;1189;-75
2022/08/20 09:03:52;;;;;;;;;;;22.70;52.50;;;;;;484243;246;1153;-75
2022/08/20 09:05:54;;;;;;;;;;;22.60;52.50;;;;;;484233;246;1216;-74
2022/08/20 09:07:56;;;;;;;;;;;22.70;52.40;;;;;;484338;246;1138;-74
2022/08/20 09:09:57;;;;;;;;;;;22.70;52.40;;;;;;484336;246;1509;-74
2022/08/20 09:11:58;;;;;;;;;;;22.80;52.30;;;;;;484292;246;1169;-74
2022/08/20 09:14:00;;;;;;;;;;;22.80;52.30;;;;;;484387;246;1260;-74
2022/08/20 09:16:01;;;;;;;;;;;22.80;52.20;;;;;;484235;246;2204;-74
2022/08/20 09:18:02;;;;;;;;;;;22.80;52.10;;;;;;484376;243;1246;-74
2022/08/20 09:20:03;;;;;;;;;;;22.80;52.10;;;;;;484414;246;1178;-74
2022/08/20 09:22:05;;;;;;;;;;;22.80;52.10;;;;;;484321;246;1269;-74
2022/08/20 09:24:06;;;;;;;;;;;22.80;52.10;;;;;;484301;246;1247;-74
2022/08/20 09:26:07;;;;;;;;;;;22.80;52.10;;;;;;484259;246;1193;-75
2022/08/20 09:28:09;;;;;;;;;;;22.80;52.20;;;;;;484293;246;1117;-75
2022/08/20 09:30:10;;;;;;;;;;;22.70;52.30;;;;;;484393;246;1232;-75
2022/08/20 09:32:11;;;;;;;;;;;22.70;52.50;;;;;;484292;246;1159;-75
2022/08/20 09:34:13;;;;;;;;;;;22.70;52.40;;;;;;484399;246;1227;-75
2022/08/20 09:36:14;;;;;;;;;;;22.70;52.30;;;;;;484494;246;2148;-75
2022/08/20 09:38:15;;;;;;;;;;;22.60;52.50;;;;;;484437;246;1240;-75
2022/08/20 09:40:17;;;;;;;;;;;22.60;52.60;;;;;;484524;246;1188;-75
2022/08/20 09:42:18;;;;;;;;;;;22.60;52.60;;;;;;484474;245;1214;-74
2022/08/20 09:44:19;;;;;;;;;;;22.40;52.70;;;;;;484599;246;1182;-74
2022/08/20 09:46:21;;;;;;;;;;;22.40;52.80;;;;;;484715;246;1259;-74
2022/08/20 09:48:22;;;;;;;;;;;22.50;52.70;;;;;;484331;246;1121;-74
2022/08/20 09:50:23;;;;;;;;;;;22.40;52.60;;;;;;484339;246;1155;-74
2022/08/20 09:52:25;;;;;;;;;;;22.50;52.60;;;;;;484587;246;1163;-74
2022/08/20 09:54:28;;;;;;;;;;;22.50;52.50;;;;;;484341;246;1192;-74
2022/08/20 09:56:28;;;;;;;;;;;22.50;52.30;;;;;;484401;242;2206;-74
2022/08/20 09:58:30;;;;;;;;;;;22.60;52.30;;;;;;484280;246;1118;-74
2022/08/20 10:00:31;;;;;;;;;;;22.50;52.30;;;;;;484504;246;1205;-74
2022/08/20 10:02:32;;;;;;;;;;;22.50;52.30;;;;;;484462;246;1152;-74
2022/08/20 10:04:34;;;;;;;;;;;22.60;52.20;;;;;;484350;246;1144;-74
2022/08/20 10:06:35;;;;;;;;;;;22.50;52.20;;;;;;484205;246;1173;-74
2022/08/20 10:08:36;;;;;;;;;;;22.40;52.60;;;;;;484299;242;1223;-74
2022/08/20 10:10:38;;;;;;;;;;;22.40;52.70;;;;;;484410;246;1172;-74
2022/08/20 10:12:40;;;;;;;;;;;22.40;52.80;;;;;;484348;246;1126;-74
2022/08/20 10:14:41;;;;;;;;;;;22.40;52.80;;;;;;484340;246;1150;-74
2022/08/20 10:16:43;;;;;;;;;;;22.50;52.70;;;;;;484311;246;2168;-74
2022/08/20 10:18:44;;;;;;;;;;;22.50;52.60;;;;;;484318;246;1327;-75
2022/08/20 10:20:45;;;;;;;;;;;22.60;52.50;;;;;;484394;246;1173;-75
2022/08/20 10:22:47;;;;;;;;;;;22.60;52.50;;;;;;484494;246;1260;-75
2022/08/20 10:24:48;;;;;;;;;;;22.70;52.40;;;;;;484274;246;1203;-74
2022/08/20 10:26:49;;;;;;;;;;;22.60;52.30;;;;;;484323;246;1244;-74
2022/08/20 10:28:51;;;;;;;;;;;22.70;52.40;;;;;;484327;246;1143;-74
2022/08/20 10:30:52;;;;;;;;;;;22.70;52.30;;;;;;484328;246;1150;-74
2022/08/20 10:32:53;;;;;;;;;;;22.80;52.10;;;;;;484289;246;1159;-74
2022/08/20 10:34:55;;;;;;;;;;;22.70;52.00;;;;;;484281;246;1169;-74
2022/08/20 10:36:57;;;;;;;;;;;22.70;52.20;;;;;;484539;246;2147;-74
2022/08/20 10:38:57;;;;;;;;;;;22.80;52.20;;;;;;484177;246;1345;-75
2022/08/20 10:40:59;;;;;;;;;;;22.80;52.10;;;;;;484321;246;1250;-75
2022/08/20 10:43:00;;;;;;;;;;;22.80;52.10;;;;;;484278;246;1198;-75
2022/08/20 10:45:01;;;;;;;;;;;22.90;52.00;;;;;;484279;246;1379;-75
2022/08/20 10:47:03;;;;;;;;;;;22.90;51.90;;;;;;484256;246;1207;-75
2022/08/20 10:49:04;;;;;;;;;;;22.90;52.10;;;;;;484306;246;1358;-75
2022/08/20 10:51:06;;;;;;;;;;;22.80;52.10;;;;;;484285;246;1158;-75
2022/08/20 10:53:07;;;;;;;;;;;22.80;52.40;;;;;;484565;246;1196;-75
2022/08/20 10:55:08;;;;;;;;;;;22.70;52.40;;;;;;484292;246;1225;-74
2022/08/20 10:57:10;;;;;;;;;;;22.80;52.40;;;;;;484293;246;2163;-74
2022/08/20 10:59:11;;;;;;;;;;;22.80;52.40;;;;;;484436;246;1224;-74
2022/08/20 11:01:12;;;;;;;;;;;22.90;52.20;;;;;;484383;246;1216;-74
2022/08/20 11:03:14;;;;;;;;;;;22.90;52.10;;;;;;484495;246;1348;-74
2022/08/20 11:05:15;;;;;;;;;;;22.80;52.20;;;;;;484314;246;1146;-74
2022/08/20 11:07:16;;;;;;;;;;;22.80;52.40;;;;;;484578;246;1240;-74
2022/08/20 11:09:18;;;;;;;;;;;22.80;52.30;;;;;;484327;245;1176;-74
2022/08/20 11:11:19;;;;;;;;;;;22.90;52.30;;;;;;484320;246;1269;-74
2022/08/20 11:13:21;;;;;;;;;;;22.80;52.30;;;;;;484377;246;1229;-75
2022/08/20 11:15:22;;;;;;;;;;;22.80;52.40;;;;;;484374;246;1514;-75
2022/08/20 11:17:23;;;;;;;;;;;22.80;52.50;;;;;;484313;246;2164;-75
2022/08/20 11:19:24;;;;;;;;;;;22.90;52.40;;;;;;484560;246;1144;-75
2022/08/20 11:21:26;;;;;;;;;;;22.90;52.20;;;;;;484355;246;1093;-75
2022/08/20 11:23:27;;;;;;;;;;;22.90;52.20;;;;;;484318;245;1111;-75
2022/08/20 11:25:28;;;;;;;;;;;22.90;52.20;;;;;;484637;246;1128;-74
2022/08/20 11:27:30;;;;;;;;;;;22.90;52.20;;;;;;484561;246;1085;-74
2022/08/20 11:29:31;;;;;;;;;;;23.00;52.20;;;;;;484533;246;1164;-74
2022/08/20 11:31:32;;;;;;;;;;;23.00;52.20;;;;;;484308;246;1251;-74
2022/08/20 11:33:34;;;;;;;;;;;22.90;52.20;;;;;;484694;246;1295;-74
2022/08/20 11:35:35;;;;;;;;;;;23.00;52.20;;;;;;484316;246;1210;-74
2022/08/20 11:37:36;;;;;;;;;;;23.00;52.20;;;;;;484447;246;2124;-74
2022/08/20 11:39:38;;;;;;;;;;;23.00;52.20;;;;;;484305;246;1178;-74
2022/08/20 11:41:39;;;;;;;;;;;23.00;52.20;;;;;;484336;246;1183;-75
2022/08/20 11:43:40;;;;;;;;;;;23.00;52.20;;;;;;484460;246;1201;-75
2022/08/20 11:45:42;;;;;;;;;;;23.00;52.20;;;;;;484434;246;1210;-75
2022/08/20 11:47:43;;;;;;;;;;;22.80;52.30;;;;;;484261;246;1193;-75
2022/08/20 11:49:44;;;;;;;;;;;22.70;52.70;;;;;;484253;246;1181;-75
2022/08/20 11:51:46;;;;;;;;;;;22.70;52.70;;;;;;484365;246;1156;-75
2022/08/20 11:53:47;;;;;;;;;;;22.70;52.60;;;;;;484270;246;1255;-75
2022/08/20 11:55:48;;;;;;;;;;;22.80;52.60;;;;;;484299;246;1311;-75
2022/08/20 11:57:50;;;;;;;;;;;22.80;52.30;;;;;;484247;246;2200;-75
2022/08/20 11:59:51;;;;;;;;;;;22.90;52.10;;;;;;484284;246;1143;-75
2022/08/20 12:01:53;;;;;;;;;;;22.80;52.10;;;;;;484303;246;1134;-75
2022/08/20 12:03:54;;;;;;;;;;;22.80;52.20;;;;;;484272;246;1151;-75